createdAt,value
2023-05-19T00:00:51.115Z,37.40
2023-05-19T00:02:01.124Z,37.07
2023-05-19T00:03:14.044Z,37.45
2023-05-19T00:05:45.063Z,37.14
2023-05-19T00:06:51.577Z,37.32
2023-05-19T00:10:25.571Z,37.53
2023-05-19T00:11:30.218Z,37.14
2023-05-19T00:12:34.372Z,37.07
2023-05-19T00:13:38.469Z,37.31
2023-05-19T00:14:42.804Z,37.56
2023-05-19T00:15:47.272Z,37.18
2023-05-19T00:16:51.816Z,37.09
2023-05-19T00:17:55.708Z,36.94
2023-05-19T00:19:10.893Z,37.64
2023-05-19T00:20:15.179Z,37.06
2023-05-19T00:21:19.029Z,37.09
2023-05-19T00:22:22.847Z,37.57
2023-05-19T00:23:26.707Z,37.18
2023-05-19T00:24:30.650Z,37.26
2023-05-19T00:25:36.373Z,37.01
2023-05-19T00:26:40.280Z,37.23
2023-05-19T00:27:44.172Z,37.18
2023-05-19T00:28:48.055Z,37.46
2023-05-19T00:29:51.820Z,37.26
2023-05-19T00:30:55.708Z,37.15
2023-05-19T00:31:59.474Z,37.29
2023-05-19T00:33:03.288Z,37.29
2023-05-19T00:34:07.105Z,37.10
2023-05-19T00:35:11.251Z,37.18
2023-05-19T00:36:14.997Z,37.07
2023-05-19T00:37:18.735Z,37.51
2023-05-19T00:38:22.521Z,37.27
2023-05-19T00:39:26.364Z,37.50
2023-05-19T00:40:32.335Z,37.47
2023-05-19T00:41:37.841Z,37.74
2023-05-19T00:42:42.259Z,37.88
2023-05-19T00:43:45.955Z,36.97
2023-05-19T00:44:49.736Z,37.23
2023-05-19T00:45:53.535Z,37.17
2023-05-19T00:46:58.428Z,37.01
2023-05-19T00:48:02.450Z,37.22
2023-05-19T00:49:06.213Z,36.90
2023-05-19T00:50:10.769Z,36.89
2023-05-19T00:51:15.498Z,36.84
2023-05-19T00:52:19.383Z,37.04
2023-05-19T00:53:25.464Z,36.81
2023-05-19T00:54:29.942Z,36.94
2023-05-19T00:55:34.527Z,36.88
2023-05-19T00:56:40.204Z,36.90
2023-05-19T00:57:44.880Z,36.86
2023-05-19T00:58:48.982Z,36.99
2023-05-19T00:59:52.818Z,37.14
2023-05-19T01:00:57.964Z,37.07
2023-05-19T01:02:01.830Z,37.96
2023-05-19T01:03:06.583Z,36.97
2023-05-19T01:04:10.862Z,37.12
2023-05-19T01:05:14.738Z,37.01
2023-05-19T01:06:18.476Z,36.77
2023-05-19T01:07:22.230Z,36.89
2023-05-19T01:08:26.171Z,36.51
2023-05-19T01:09:29.992Z,36.84
2023-05-19T01:10:33.995Z,37.03
2023-05-19T01:11:39.603Z,36.35
2023-05-19T01:12:43.398Z,36.49
2023-05-19T01:13:47.239Z,36.89
2023-05-19T01:14:51.152Z,36.61
2023-05-19T01:16:05.412Z,36.55
2023-05-19T01:17:15.420Z,36.65
2023-05-19T01:18:28.124Z,36.85
2023-05-19T01:19:51.539Z,36.23
2023-05-19T01:21:06.284Z,36.17
2023-05-19T01:22:40.854Z,36.51
2023-05-19T01:23:52.372Z,36.39
2023-05-19T01:25:27.722Z,36.05
2023-05-19T01:27:01.825Z,36.37
2023-05-19T01:28:46.682Z,36.79
2023-05-19T01:30:26.685Z,36.72
2023-05-19T01:31:32.229Z,37.45
2023-05-19T01:32:36.914Z,36.98
2023-05-19T01:33:44.343Z,36.54
2023-05-19T01:34:50.317Z,36.28
2023-05-19T01:35:56.255Z,36.64
2023-05-19T01:37:01.758Z,36.92
2023-05-19T01:38:08.861Z,36.65
2023-05-19T01:39:14.261Z,37.27
2023-05-19T01:40:19.123Z,36.81
2023-05-19T01:41:23.836Z,36.59
2023-05-19T01:42:28.962Z,36.54
2023-05-19T01:43:34.081Z,36.64
2023-05-19T01:44:38.715Z,36.83
2023-05-19T01:45:43.351Z,36.16
2023-05-19T01:46:49.757Z,36.30
2023-05-19T01:47:56.139Z,35.94
2023-05-19T01:49:01.000Z,36.30
2023-05-19T01:50:05.047Z,36.68
2023-05-19T01:51:09.221Z,37.00
2023-05-19T01:52:13.574Z,36.52
2023-05-19T01:53:17.931Z,36.33
2023-05-19T01:54:21.676Z,36.38
2023-05-19T01:55:25.887Z,36.15
2023-05-19T01:56:42.214Z,36.24
2023-05-19T01:57:53.734Z,36.24
2023-05-19T01:59:07.836Z,35.63
2023-05-19T02:00:21.323Z,36.11
2023-05-19T02:01:40.577Z,35.90
2023-05-19T02:03:00.970Z,36.14
2023-05-19T02:04:20.083Z,36.10
2023-05-19T02:05:36.169Z,35.66
2023-05-19T02:06:50.942Z,36.39
2023-05-19T02:08:08.464Z,35.87
2023-05-19T02:09:19.889Z,36.02
2023-05-19T02:10:28.448Z,36.39
2023-05-19T02:11:38.031Z,36.32
2023-05-19T02:12:42.528Z,35.78
2023-05-19T02:13:51.091Z,35.81
2023-05-19T02:15:00.869Z,35.51
2023-05-19T02:16:06.674Z,35.09
2023-05-19T02:17:11.708Z,35.19
2023-05-19T02:18:21.008Z,35.37
2023-05-19T02:19:26.875Z,34.79
2023-05-19T02:20:31.127Z,35.71
2023-05-19T02:21:34.990Z,35.23
2023-05-19T02:22:38.765Z,35.67
2023-05-19T02:23:42.649Z,35.19
2023-05-19T02:24:46.478Z,35.32
2023-05-19T02:25:50.409Z,35.29
2023-05-19T02:26:54.965Z,35.39
2023-05-19T02:28:00.567Z,35.19
2023-05-19T02:29:04.383Z,35.05
2023-05-19T02:30:11.149Z,34.98
2023-05-19T02:31:14.889Z,34.99
2023-05-19T02:32:19.301Z,34.75
2023-05-19T02:33:24.776Z,35.08
2023-05-19T02:34:28.479Z,34.83
2023-05-19T02:35:32.171Z,35.01
2023-05-19T02:36:36.934Z,35.14
2023-05-19T02:37:40.895Z,34.71
2023-05-19T02:38:44.595Z,34.71
2023-05-19T02:39:48.370Z,34.59
2023-05-19T02:40:53.129Z,34.66
2023-05-19T02:41:56.891Z,34.68
2023-05-19T02:43:00.757Z,34.46
2023-05-19T02:44:04.662Z,34.67
2023-05-19T02:45:09.322Z,34.37
2023-05-19T02:46:13.105Z,34.27
2023-05-19T02:47:16.920Z,34.52
2023-05-19T02:48:20.828Z,34.38
2023-05-19T02:49:26.161Z,34.08
2023-05-19T02:50:29.994Z,33.88
2023-05-19T02:51:33.852Z,34.21
2023-05-19T02:52:37.593Z,33.96
2023-05-19T02:53:41.745Z,34.19
2023-05-19T02:54:45.676Z,34.44
2023-05-19T02:55:49.437Z,34.10
2023-05-19T02:56:53.173Z,34.21
2023-05-19T02:57:57.125Z,34.48
2023-05-19T02:59:00.815Z,34.17
2023-05-19T03:00:04.923Z,34.39
2023-05-19T03:01:08.820Z,34.41
2023-05-19T03:02:12.626Z,33.62
2023-05-19T03:03:16.515Z,33.70
2023-05-19T03:04:20.277Z,33.38
2023-05-19T03:05:25.658Z,33.45
2023-05-19T03:06:29.348Z,33.68
2023-05-19T03:07:33.003Z,33.54
2023-05-19T03:08:36.951Z,33.92
2023-05-19T03:09:44.514Z,33.60
2023-05-19T03:10:48.489Z,33.66
2023-05-19T03:11:55.808Z,33.19
2023-05-19T03:12:59.703Z,33.07
2023-05-19T03:14:11.337Z,33.47
2023-05-19T03:15:33.465Z,33.24
2023-05-19T03:16:38.783Z,33.10
2023-05-19T03:17:42.556Z,32.80
2023-05-19T03:18:47.201Z,33.32
2023-05-19T03:19:51.009Z,32.92
2023-05-19T03:21:06.379Z,32.95
2023-05-19T03:22:10.198Z,32.83
2023-05-19T03:23:14.067Z,33.31
2023-05-19T03:24:17.949Z,32.96
2023-05-19T03:25:21.837Z,32.79
2023-05-19T03:26:25.692Z,33.38
2023-05-19T03:27:30.362Z,32.47
2023-05-19T03:28:34.183Z,32.32
2023-05-19T03:29:38.038Z,32.85
2023-05-19T03:30:44.857Z,33.57
2023-05-19T03:31:48.598Z,32.96
2023-05-19T03:32:52.735Z,32.37
2023-05-19T03:33:56.563Z,31.98
2023-05-19T03:35:00.470Z,32.12
2023-05-19T03:36:09.085Z,32.33
2023-05-19T03:37:12.797Z,31.26
2023-05-19T03:38:16.725Z,32.16
2023-05-19T03:39:22.281Z,31.98
2023-05-19T03:40:26.318Z,31.61
2023-05-19T03:41:35.485Z,31.19
2023-05-19T03:42:39.284Z,32.22
2023-05-19T03:43:46.290Z,31.76
2023-05-19T03:44:50.055Z,31.77
2023-05-19T03:45:53.919Z,31.77
2023-05-19T03:46:57.666Z,31.68
2023-05-19T03:48:12.190Z,31.65
2023-05-19T03:49:16.071Z,31.96
2023-05-19T03:50:20.022Z,31.58
2023-05-19T03:51:25.595Z,31.61
2023-05-19T03:52:40.700Z,30.75
2023-05-19T03:53:45.115Z,31.73
2023-05-19T03:54:49.233Z,31.29
2023-05-19T03:55:53.356Z,30.80
2023-05-19T03:56:57.782Z,30.69
2023-05-19T03:58:01.824Z,30.77
2023-05-19T03:59:05.724Z,31.65
2023-05-19T04:00:10.654Z,31.31
2023-05-19T04:01:19.948Z,30.87
2023-05-19T04:02:26.185Z,31.52
2023-05-19T04:03:30.357Z,31.20
2023-05-19T04:04:35.265Z,30.68
2023-05-19T04:05:39.283Z,31.50
2023-05-19T04:06:44.775Z,31.52
2023-05-19T04:07:48.843Z,31.24
2023-05-19T04:08:52.564Z,30.76
2023-05-19T04:09:56.309Z,30.91
2023-05-19T04:11:00.091Z,31.37
2023-05-19T04:12:03.976Z,30.01
2023-05-19T04:13:14.042Z,30.20
2023-05-19T20:02:04.177Z,32.94
2023-05-19T20:03:08.079Z,32.72
2023-05-19T20:04:12.301Z,32.71
2023-05-19T20:05:16.516Z,32.63
2023-05-19T20:06:20.326Z,32.73
2023-05-19T20:07:24.143Z,32.97
2023-05-19T20:08:28.541Z,32.42
2023-05-19T20:09:32.279Z,32.74
2023-05-19T20:10:36.584Z,32.73
2023-05-19T20:11:40.393Z,32.59
2023-05-19T20:12:44.213Z,32.59
2023-05-19T20:13:47.932Z,32.49
2023-05-19T20:14:54.067Z,32.31
2023-05-19T20:15:57.809Z,32.56
2023-05-19T20:17:03.205Z,32.28
2023-05-19T20:18:07.058Z,32.72
2023-05-19T20:19:10.846Z,32.88
2023-05-19T20:20:15.121Z,32.88
2023-05-19T20:21:18.862Z,32.60
2023-05-19T20:22:22.623Z,32.77
2023-05-19T20:23:26.344Z,32.84
2023-05-19T20:24:30.090Z,32.62
2023-05-19T20:25:33.991Z,32.72
2023-05-19T20:26:37.829Z,32.78
2023-05-19T20:27:41.552Z,33.03
2023-05-19T20:28:45.380Z,33.57
2023-05-19T20:29:49.155Z,33.10
2023-05-19T20:30:52.966Z,33.21
2023-05-19T20:31:57.417Z,33.26
2023-05-19T20:33:02.900Z,33.24
2023-05-19T20:34:06.805Z,33.52
2023-05-19T20:35:10.832Z,33.46
2023-05-19T20:36:14.611Z,33.19
2023-05-19T20:37:18.355Z,33.15
2023-05-19T20:38:22.036Z,33.29
2023-05-19T20:39:25.860Z,33.47
2023-05-19T20:40:29.565Z,33.31
2023-05-19T20:41:33.232Z,33.58
2023-05-19T20:42:38.049Z,33.34
2023-05-19T20:43:41.789Z,33.40
2023-05-19T20:44:45.765Z,33.24
2023-05-19T20:45:49.720Z,33.21
2023-05-19T20:46:53.500Z,33.38
2023-05-19T20:47:57.150Z,33.22
2023-05-19T20:49:02.576Z,33.27
2023-05-19T20:50:07.146Z,33.34
2023-05-19T20:51:10.867Z,33.21
2023-05-19T20:52:16.271Z,33.22
2023-05-19T20:53:20.423Z,33.47
2023-05-19T20:54:24.172Z,33.33
2023-05-19T20:55:27.932Z,33.24
2023-05-19T20:56:31.704Z,33.42
2023-05-19T20:57:35.676Z,33.38
2023-05-19T20:58:39.396Z,33.38
2023-05-19T20:59:43.193Z,33.40
2023-05-19T21:00:47.066Z,33.46
2023-05-19T21:01:52.148Z,33.36
2023-05-19T21:02:56.044Z,33.58
2023-05-19T21:04:01.523Z,33.67
2023-05-19T21:05:05.826Z,33.25
2023-05-19T21:06:09.503Z,34.04
2023-05-19T21:07:13.265Z,33.48
2023-05-19T21:08:16.990Z,33.68
2023-05-19T21:09:20.717Z,33.80
2023-05-19T21:10:24.430Z,33.88
2023-05-19T21:11:28.113Z,33.77
2023-05-19T21:12:31.876Z,33.63
2023-05-19T21:13:35.588Z,33.64
2023-05-19T21:14:39.310Z,33.57
2023-05-19T21:15:43.077Z,33.56
2023-05-19T21:16:49.335Z,33.68
2023-05-19T21:17:53.198Z,33.74
2023-05-19T21:18:56.954Z,33.99
2023-05-19T21:20:02.416Z,34.04
2023-05-19T21:21:06.268Z,33.52
2023-05-19T21:22:09.905Z,34.23
2023-05-19T21:23:13.678Z,34.07
2023-05-19T21:24:17.410Z,34.00
2023-05-19T21:25:21.182Z,34.23
2023-05-19T21:26:24.924Z,33.91
2023-05-19T21:27:28.694Z,33.74
2023-05-19T21:28:32.358Z,34.14
2023-05-19T21:29:36.074Z,34.17
2023-05-19T21:30:39.751Z,33.95
2023-05-19T21:31:43.362Z,33.72
2023-05-19T21:32:47.085Z,33.81
2023-05-19T21:33:50.819Z,33.74
2023-05-19T21:34:54.538Z,33.45
2023-05-19T21:35:59.965Z,33.74
2023-05-19T21:37:03.761Z,33.43
2023-05-19T21:38:22.135Z,34.09
2023-05-19T21:39:26.882Z,34.18
2023-05-19T21:40:30.623Z,34.13
2023-05-19T21:41:34.386Z,34.24
2023-05-19T21:42:38.170Z,33.80
2023-05-19T21:43:42.014Z,33.57
2023-05-19T21:44:45.735Z,33.93
2023-05-19T21:45:49.557Z,33.74
2023-05-19T21:46:53.433Z,33.81
2023-05-19T21:47:57.300Z,33.84
2023-05-19T21:49:01.175Z,34.14
2023-05-19T21:50:05.086Z,34.29
2023-05-19T21:51:10.413Z,34.16
2023-05-19T21:52:14.169Z,34.21
2023-05-19T21:53:17.839Z,34.06
2023-05-19T21:54:21.542Z,33.69
2023-05-19T21:55:25.279Z,33.80
2023-05-19T21:56:28.973Z,33.45
2023-05-19T21:57:32.793Z,33.70
2023-05-19T21:58:36.548Z,34.07
2023-05-19T21:59:40.497Z,34.02
2023-05-19T22:00:48.486Z,33.93
2023-05-19T22:01:52.382Z,34.14
2023-05-19T22:02:56.312Z,34.23
2023-05-19T22:04:00.251Z,34.16
2023-05-19T22:05:04.327Z,33.87
2023-05-19T22:06:11.237Z,33.86
2023-05-19T22:07:15.094Z,33.77
2023-05-19T22:08:19.536Z,33.96
2023-05-19T22:09:23.386Z,34.38
2023-05-19T22:10:27.294Z,34.30
2023-05-19T22:11:31.023Z,34.12
2023-05-19T22:12:34.787Z,34.37
2023-05-19T22:13:38.468Z,34.31
2023-05-19T22:14:42.269Z,34.10
2023-05-19T22:15:46.098Z,33.99
2023-05-19T22:16:49.892Z,34.21
2023-05-19T22:17:53.662Z,34.28
2023-05-19T22:18:57.554Z,33.99
2023-05-19T22:20:01.458Z,34.79
2023-05-19T22:21:05.354Z,34.86
2023-05-19T22:22:14.343Z,34.57
2023-05-19T22:23:18.498Z,34.01
2023-05-19T22:24:22.270Z,34.69
2023-05-19T22:25:26.017Z,34.70
2023-05-19T22:26:29.723Z,34.51
2023-05-19T22:27:33.490Z,34.54
2023-05-19T22:28:37.185Z,34.73
2023-05-19T22:29:40.944Z,35.28
2023-05-19T22:30:44.772Z,34.97
2023-05-19T22:31:48.490Z,34.60
2023-05-19T22:32:52.182Z,35.05
2023-05-19T22:33:56.133Z,34.99
2023-05-19T22:34:59.890Z,34.95
2023-05-19T22:36:03.649Z,35.01
2023-05-19T22:37:07.340Z,35.23
2023-05-19T22:38:12.701Z,34.53
2023-05-19T22:39:16.490Z,34.73
2023-05-19T22:40:20.377Z,34.90
2023-05-19T22:41:24.142Z,34.70
2023-05-19T22:42:27.901Z,35.25
2023-05-19T22:43:31.648Z,35.33
2023-05-19T22:44:35.317Z,34.93
2023-05-19T22:45:38.965Z,35.04
2023-05-19T22:46:42.856Z,35.62
2023-05-19T22:47:46.821Z,35.37
2023-05-19T22:48:50.591Z,35.43
2023-05-19T22:49:54.950Z,35.73
2023-05-19T22:51:00.802Z,35.64
2023-05-19T22:52:04.620Z,36.02
2023-05-19T22:53:08.261Z,35.52
2023-05-19T22:54:13.618Z,35.75
2023-05-19T22:55:17.347Z,35.82
2023-05-19T22:56:21.112Z,35.69
2023-05-19T22:57:24.783Z,36.18
2023-05-19T22:58:28.498Z,35.78
2023-05-19T22:59:32.194Z,36.17
2023-05-19T23:00:35.866Z,35.98
2023-05-19T23:01:39.762Z,35.81
2023-05-19T23:02:43.586Z,35.93
2023-05-19T23:03:47.311Z,36.06
2023-05-19T23:04:51.014Z,36.17
2023-05-19T23:05:54.752Z,36.30
2023-05-19T23:06:58.560Z,35.59
2023-05-19T23:08:02.396Z,36.38
2023-05-19T23:09:06.218Z,35.64
2023-05-19T23:10:12.090Z,36.06
2023-05-19T23:11:15.725Z,35.94
2023-05-19T23:12:19.640Z,35.90
2023-05-19T23:13:23.370Z,35.87
2023-05-19T23:14:27.071Z,35.99
2023-05-19T23:15:30.726Z,35.83
2023-05-19T23:16:34.487Z,35.85
2023-05-19T23:17:38.637Z,35.91
2023-05-19T23:18:42.699Z,36.11
2023-05-19T23:19:46.844Z,36.38
2023-05-19T23:20:50.555Z,35.93
2023-05-19T23:21:54.372Z,36.01
2023-05-19T23:22:58.078Z,36.26
2023-05-19T23:24:01.793Z,35.92
2023-05-19T23:25:06.105Z,36.26
2023-05-19T23:26:11.531Z,35.80
2023-05-19T23:27:15.201Z,35.74
2023-05-19T23:28:18.942Z,36.56
2023-05-19T23:29:22.572Z,36.02
2023-05-19T23:30:26.264Z,36.41
2023-05-19T23:31:30.051Z,36.45
2023-05-19T23:32:33.949Z,36.12
2023-05-19T23:33:37.752Z,35.94
2023-05-19T23:34:41.459Z,36.16
2023-05-19T23:35:47.309Z,36.59
2023-05-19T23:36:51.042Z,35.88
2023-05-19T23:37:54.924Z,36.00
2023-05-19T23:38:58.674Z,36.16
2023-05-19T23:40:02.487Z,36.51
2023-05-19T23:41:06.534Z,36.04
2023-05-19T23:42:11.952Z,36.00
2023-05-19T23:43:15.674Z,35.93
2023-05-19T23:44:20.368Z,36.05
2023-05-19T23:45:24.168Z,35.95
2023-05-19T23:46:27.974Z,36.20
2023-05-19T23:47:31.975Z,36.11
2023-05-19T23:48:35.711Z,36.08
2023-05-19T23:49:39.422Z,36.07
2023-05-19T23:50:43.289Z,35.90
2023-05-19T23:51:47.040Z,35.81
2023-05-19T23:52:50.742Z,36.30
2023-05-19T23:53:54.429Z,35.86
2023-05-19T23:54:58.241Z,36.36
2023-05-19T23:56:01.967Z,35.99
2023-05-19T23:57:05.930Z,36.17
2023-05-19T23:58:11.300Z,35.97
2023-05-19T23:59:15.059Z,35.61
